sensor_id;sensor_type;location;lat;lon;timestamp;P1;durP1;ratioP1;P2;durP2;ratioP2
74042;SDS011;62384;53.600;10.040;2023-02-15T00:00:52;89.85;;;24.90;;
74042;SDS011;62384;53.600;10.040;2023-02-15T00:03:19;82.32;;;24.65;;
74042;SDS011;62384;53.600;10.040;2023-02-15T00:05:45;86.32;;;27.13;;
74042;SDS011;62384;53.600;10.040;2023-02-15T00:08:11;77.47;;;24.77;;
74042;SDS011;62384;53.600;10.040;2023-02-15T00:10:36;85.70;;;25.88;;
74042;SDS011;62384;53.600;10.040;2023-02-15T00:13:01;78.97;;;25.17;;
74042;SDS011;62384;53.600;10.040;2023-02-15T00:15:26;104.68;;;27.08;;
74042;SDS011;62384;53.600;10.040;2023-02-15T00:17:53;87.00;;;24.85;;
74042;SDS011;62384;53.600;10.040;2023-02-15T00:20:18;91.93;;;25.80;;
74042;SDS011;62384;53.600;10.040;2023-02-15T00:22:43;83.30;;;26.35;;
74042;SDS011;62384;53.600;10.040;2023-02-15T00:25:09;93.90;;;27.63;;
74042;SDS011;62384;53.600;10.040;2023-02-15T00:27:34;90.82;;;25.52;;
74042;SDS011;62384;53.600;10.040;2023-02-15T00:30:00;81.55;;;26.20;;
74042;SDS011;62384;53.600;10.040;2023-02-15T00:32:25;115.57;;;28.40;;
74042;SDS011;62384;53.600;10.040;2023-02-15T00:34:50;94.47;;;24.92;;
74042;SDS011;62384;53.600;10.040;2023-02-15T00:37:15;127.93;;;27.65;;
74042;SDS011;62384;53.600;10.040;2023-02-15T00:39:40;84.85;;;25.92;;
74042;SDS011;62384;53.600;10.040;2023-02-15T00:42:06;83.00;;;24.90;;
74042;SDS011;62384;53.600;10.040;2023-02-15T00:44:31;81.47;;;25.60;;
74042;SDS011;62384;53.600;10.040;2023-02-15T00:46:56;90.13;;;25.83;;
74042;SDS011;62384;53.600;10.040;2023-02-15T00:49:22;91.60;;;27.75;;
74042;SDS011;62384;53.600;10.040;2023-02-15T00:51:47;79.18;;;24.73;;
74042;SDS011;62384;53.600;10.040;2023-02-15T00:54:12;79.75;;;23.13;;
74042;SDS011;62384;53.600;10.040;2023-02-15T00:56:37;119.97;;;26.60;;
74042;SDS011;62384;53.600;10.040;2023-02-15T00:59:03;93.25;;;25.45;;
74042;SDS011;62384;53.600;10.040;2023-02-15T01:01:28;92.75;;;24.38;;
74042;SDS011;62384;53.600;10.040;2023-02-15T01:03:53;96.90;;;24.05;;
74042;SDS011;62384;53.600;10.040;2023-02-15T01:06:18;83.47;;;25.13;;
74042;SDS011;62384;53.600;10.040;2023-02-15T01:08:44;82.82;;;25.02;;
74042;SDS011;62384;53.600;10.040;2023-02-15T01:11:13;100.63;;;23.48;;
74042;SDS011;62384;53.600;10.040;2023-02-15T01:13:40;88.95;;;22.88;;
74042;SDS011;62384;53.600;10.040;2023-02-15T01:16:06;87.55;;;23.85;;
74042;SDS011;62384;53.600;10.040;2023-02-15T01:18:31;109.57;;;25.83;;
74042;SDS011;62384;53.600;10.040;2023-02-15T01:20:57;80.00;;;23.48;;
74042;SDS011;62384;53.600;10.040;2023-02-15T01:23:22;84.85;;;24.05;;
74042;SDS011;62384;53.600;10.040;2023-02-15T01:25:47;99.32;;;24.65;;
74042;SDS011;62384;53.600;10.040;2023-02-15T01:28:13;90.15;;;25.15;;
74042;SDS011;62384;53.600;10.040;2023-02-15T01:30:40;77.90;;;24.90;;
74042;SDS011;62384;53.600;10.040;2023-02-15T01:33:06;108.10;;;25.65;;
74042;SDS011;62384;53.600;10.040;2023-02-15T01:35:31;87.18;;;24.02;;
74042;SDS011;62384;53.600;10.040;2023-02-15T01:37:56;87.25;;;23.42;;
74042;SDS011;62384;53.600;10.040;2023-02-15T01:40:22;79.82;;;27.13;;
74042;SDS011;62384;53.600;10.040;2023-02-15T01:42:51;80.25;;;25.80;;
74042;SDS011;62384;53.600;10.040;2023-02-15T01:45:25;92.10;;;24.17;;
74042;SDS011;62384;53.600;10.040;2023-02-15T01:48:00;77.75;;;24.73;;
74042;SDS011;62384;53.600;10.040;2023-02-15T01:50:39;76.57;;;25.25;;
74042;SDS011;62384;53.600;10.040;2023-02-15T01:53:27;86.22;;;24.85;;
74042;SDS011;62384;53.600;10.040;2023-02-15T01:55:58;77.97;;;25.85;;
74042;SDS011;62384;53.600;10.040;2023-02-15T01:58:27;73.00;;;22.55;;
74042;SDS011;62384;53.600;10.040;2023-02-15T02:00:54;92.28;;;25.45;;
74042;SDS011;62384;53.600;10.040;2023-02-15T02:03:24;64.68;;;20.83;;
74042;SDS011;62384;53.600;10.040;2023-02-15T02:05:59;75.22;;;22.80;;
74042;SDS011;62384;53.600;10.040;2023-02-15T02:08:24;79.78;;;24.15;;
74042;SDS011;62384;53.600;10.040;2023-02-15T02:10:50;90.15;;;24.98;;
74042;SDS011;62384;53.600;10.040;2023-02-15T02:13:15;77.80;;;23.77;;
74042;SDS011;62384;53.600;10.040;2023-02-15T02:15:47;75.60;;;23.85;;
74042;SDS011;62384;53.600;10.040;2023-02-15T02:18:35;80.82;;;24.48;;
74042;SDS011;62384;53.600;10.040;2023-02-15T02:29:05;81.10;;;23.92;;
74042;SDS011;62384;53.600;10.040;2023-02-15T02:31:43;83.95;;;22.40;;
74042;SDS011;62384;53.600;10.040;2023-02-15T02:34:26;77.75;;;24.23;;
74042;SDS011;62384;53.600;10.040;2023-02-15T02:37:03;94.50;;;23.45;;
74042;SDS011;62384;53.600;10.040;2023-02-15T02:42:40;82.35;;;24.83;;
74042;SDS011;62384;53.600;10.040;2023-02-15T02:48:19;87.63;;;23.45;;
74042;SDS011;62384;53.600;10.040;2023-02-15T02:50:49;83.38;;;24.58;;
74042;SDS011;62384;53.600;10.040;2023-02-15T02:53:14;79.80;;;24.25;;
74042;SDS011;62384;53.600;10.040;2023-02-15T02:55:41;80.63;;;25.23;;
74042;SDS011;62384;53.600;10.040;2023-02-15T03:03:22;72.90;;;23.83;;
74042;SDS011;62384;53.600;10.040;2023-02-15T03:05:59;69.20;;;23.33;;
74042;SDS011;62384;53.600;10.040;2023-02-15T03:08:28;88.05;;;24.13;;
74042;SDS011;62384;53.600;10.040;2023-02-15T03:11:02;93.72;;;24.15;;
74042;SDS011;62384;53.600;10.040;2023-02-15T03:13:28;104.53;;;26.27;;
74042;SDS011;62384;53.600;10.040;2023-02-15T03:15:54;77.25;;;20.50;;
74042;SDS011;62384;53.600;10.040;2023-02-15T03:18:44;73.93;;;25.15;;
74042;SDS011;62384;53.600;10.040;2023-02-15T03:21:21;68.30;;;22.67;;
74042;SDS011;62384;53.600;10.040;2023-02-15T03:23:54;76.47;;;22.45;;
74042;SDS011;62384;53.600;10.040;2023-02-15T03:26:25;78.53;;;24.45;;
74042;SDS011;62384;53.600;10.040;2023-02-15T03:28:53;72.70;;;22.13;;
74042;SDS011;62384;53.600;10.040;2023-02-15T03:31:21;66.55;;;21.55;;
74042;SDS011;62384;53.600;10.040;2023-02-15T03:33:51;69.47;;;23.45;;
74042;SDS011;62384;53.600;10.040;2023-02-15T03:36:24;94.60;;;22.50;;
74042;SDS011;62384;53.600;10.040;2023-02-15T03:41:32;88.97;;;24.30;;
74042;SDS011;62384;53.600;10.040;2023-02-15T03:44:06;77.30;;;25.48;;
74042;SDS011;62384;53.600;10.040;2023-02-15T03:46:40;68.47;;;21.83;;
74042;SDS011;62384;53.600;10.040;2023-02-15T03:49:15;64.13;;;22.08;;
74042;SDS011;62384;53.600;10.040;2023-02-15T03:51:46;81.90;;;24.80;;
74042;SDS011;62384;53.600;10.040;2023-02-15T03:54:14;87.25;;;23.15;;
74042;SDS011;62384;53.600;10.040;2023-02-15T04:00:05;69.03;;;22.80;;
74042;SDS011;62384;53.600;10.040;2023-02-15T04:02:57;70.15;;;21.92;;
74042;SDS011;62384;53.600;10.040;2023-02-15T04:05:36;74.03;;;21.63;;
74042;SDS011;62384;53.600;10.040;2023-02-15T04:08:02;76.15;;;23.20;;
74042;SDS011;62384;53.600;10.040;2023-02-15T04:10:28;101.70;;;23.25;;
74042;SDS011;62384;53.600;10.040;2023-02-15T04:13:12;62.35;;;20.85;;
74042;SDS011;62384;53.600;10.040;2023-02-15T04:15:37;65.50;;;20.17;;
74042;SDS011;62384;53.600;10.040;2023-02-15T04:18:21;72.60;;;19.63;;
74042;SDS011;62384;53.600;10.040;2023-02-15T04:20:46;70.90;;;21.92;;
74042;SDS011;62384;53.600;10.040;2023-02-15T04:23:30;67.53;;;21.50;;
74042;SDS011;62384;53.600;10.040;2023-02-15T04:26:14;79.38;;;22.92;;
74042;SDS011;62384;53.600;10.040;2023-02-15T04:28:39;61.65;;;22.08;;
74042;SDS011;62384;53.600;10.040;2023-02-15T04:31:05;86.03;;;22.60;;
74042;SDS011;62384;53.600;10.040;2023-02-15T04:33:30;63.50;;;20.65;;
74042;SDS011;62384;53.600;10.040;2023-02-15T04:35:55;72.43;;;23.52;;
74042;SDS011;62384;53.600;10.040;2023-02-15T04:38:21;70.30;;;20.10;;
74042;SDS011;62384;53.600;10.040;2023-02-15T04:40:50;65.03;;;19.63;;
74042;SDS011;62384;53.600;10.040;2023-02-15T04:43:17;69.15;;;19.92;;
74042;SDS011;62384;53.600;10.040;2023-02-15T04:45:47;60.47;;;20.23;;
74042;SDS011;62384;53.600;10.040;2023-02-15T04:48:17;64.07;;;19.30;;
74042;SDS011;62384;53.600;10.040;2023-02-15T04:50:43;65.20;;;19.67;;
74042;SDS011;62384;53.600;10.040;2023-02-15T04:53:09;64.22;;;20.27;;
74042;SDS011;62384;53.600;10.040;2023-02-15T04:55:35;60.63;;;18.83;;
74042;SDS011;62384;53.600;10.040;2023-02-15T04:58:00;59.13;;;20.00;;
74042;SDS011;62384;53.600;10.040;2023-02-15T05:00:25;56.50;;;19.80;;
74042;SDS011;62384;53.600;10.040;2023-02-15T05:02:52;67.00;;;20.10;;
74042;SDS011;62384;53.600;10.040;2023-02-15T05:05:17;58.40;;;21.38;;
74042;SDS011;62384;53.600;10.040;2023-02-15T05:07:42;67.60;;;20.63;;
74042;SDS011;62384;53.600;10.040;2023-02-15T05:10:08;60.17;;;19.80;;
74042;SDS011;62384;53.600;10.040;2023-02-15T05:12:33;70.50;;;19.70;;
74042;SDS011;62384;53.600;10.040;2023-02-15T05:14:59;63.20;;;19.58;;
74042;SDS011;62384;53.600;10.040;2023-02-15T05:17:24;66.32;;;20.40;;
74042;SDS011;62384;53.600;10.040;2023-02-15T05:19:49;60.97;;;20.10;;
74042;SDS011;62384;53.600;10.040;2023-02-15T05:22:14;55.63;;;18.63;;
74042;SDS011;62384;53.600;10.040;2023-02-15T05:24:39;63.40;;;18.30;;
74042;SDS011;62384;53.600;10.040;2023-02-15T05:27:24;80.00;;;19.25;;
74042;SDS011;62384;53.600;10.040;2023-02-15T05:30:08;61.13;;;19.23;;
74042;SDS011;62384;53.600;10.040;2023-02-15T05:32:37;51.90;;;19.75;;
74042;SDS011;62384;53.600;10.040;2023-02-15T05:35:04;70.50;;;22.63;;
74042;SDS011;62384;53.600;10.040;2023-02-15T05:37:32;94.43;;;20.70;;
74042;SDS011;62384;53.600;10.040;2023-02-15T05:39:58;65.25;;;19.90;;
74042;SDS011;62384;53.600;10.040;2023-02-15T05:42:23;76.90;;;20.80;;
74042;SDS011;62384;53.600;10.040;2023-02-15T05:44:48;65.07;;;20.08;;
74042;SDS011;62384;53.600;10.040;2023-02-15T05:47:13;91.97;;;21.88;;
74042;SDS011;62384;53.600;10.040;2023-02-15T05:49:39;63.10;;;19.42;;
74042;SDS011;62384;53.600;10.040;2023-02-15T05:52:04;61.90;;;19.48;;
74042;SDS011;62384;53.600;10.040;2023-02-15T05:54:29;71.18;;;21.52;;
74042;SDS011;62384;53.600;10.040;2023-02-15T05:56:55;73.47;;;18.38;;
74042;SDS011;62384;53.600;10.040;2023-02-15T05:59:20;73.80;;;20.08;;
74042;SDS011;62384;53.600;10.040;2023-02-15T06:01:45;61.90;;;21.15;;
74042;SDS011;62384;53.600;10.040;2023-02-15T06:04:10;75.22;;;20.92;;
74042;SDS011;62384;53.600;10.040;2023-02-15T06:06:36;51.42;;;18.45;;
74042;SDS011;62384;53.600;10.040;2023-02-15T06:09:01;61.72;;;17.23;;
74042;SDS011;62384;53.600;10.040;2023-02-15T06:11:26;73.03;;;19.27;;
74042;SDS011;62384;53.600;10.040;2023-02-15T06:13:51;70.93;;;19.45;;
74042;SDS011;62384;53.600;10.040;2023-02-15T06:16:16;85.22;;;20.85;;
74042;SDS011;62384;53.600;10.040;2023-02-15T06:18:42;113.35;;;20.75;;
74042;SDS011;62384;53.600;10.040;2023-02-15T06:21:07;68.85;;;18.73;;
74042;SDS011;62384;53.600;10.040;2023-02-15T06:23:33;60.40;;;19.63;;
74042;SDS011;62384;53.600;10.040;2023-02-15T06:25:58;53.47;;;19.27;;
74042;SDS011;62384;53.600;10.040;2023-02-15T06:28:23;63.78;;;17.02;;
74042;SDS011;62384;53.600;10.040;2023-02-15T06:30:50;63.28;;;18.58;;
74042;SDS011;62384;53.600;10.040;2023-02-15T06:33:15;56.10;;;18.40;;
74042;SDS011;62384;53.600;10.040;2023-02-15T06:35:41;62.95;;;20.13;;
74042;SDS011;62384;53.600;10.040;2023-02-15T06:38:06;77.72;;;18.92;;
74042;SDS011;62384;53.600;10.040;2023-02-15T06:40:31;66.00;;;20.52;;
74042;SDS011;62384;53.600;10.040;2023-02-15T06:42:56;63.60;;;18.55;;
74042;SDS011;62384;53.600;10.040;2023-02-15T06:45:21;58.88;;;17.42;;
74042;SDS011;62384;53.600;10.040;2023-02-15T06:47:47;112.38;;;21.05;;
74042;SDS011;62384;53.600;10.040;2023-02-15T06:50:12;64.05;;;20.23;;
74042;SDS011;62384;53.600;10.040;2023-02-15T06:52:37;77.20;;;18.98;;
74042;SDS011;62384;53.600;10.040;2023-02-15T06:55:02;79.03;;;20.63;;
74042;SDS011;62384;53.600;10.040;2023-02-15T06:57:28;71.22;;;18.63;;
74042;SDS011;62384;53.600;10.040;2023-02-15T06:59:53;60.63;;;18.48;;
74042;SDS011;62384;53.600;10.040;2023-02-15T07:02:18;57.90;;;18.08;;
74042;SDS011;62384;53.600;10.040;2023-02-15T07:04:44;56.10;;;16.98;;
74042;SDS011;62384;53.600;10.040;2023-02-15T07:07:09;89.35;;;19.92;;
74042;SDS011;62384;53.600;10.040;2023-02-15T07:09:36;64.35;;;18.75;;
74042;SDS011;62384;53.600;10.040;2023-02-15T07:12:02;53.40;;;19.17;;
74042;SDS011;62384;53.600;10.040;2023-02-15T07:14:46;53.25;;;17.02;;
74042;SDS011;62384;53.600;10.040;2023-02-15T07:17:11;63.88;;;18.40;;
74042;SDS011;62384;53.600;10.040;2023-02-15T07:19:36;76.28;;;20.05;;
74042;SDS011;62384;53.600;10.040;2023-02-15T07:22:01;54.55;;;18.70;;
74042;SDS011;62384;53.600;10.040;2023-02-15T07:24:28;73.82;;;19.92;;
74042;SDS011;62384;53.600;10.040;2023-02-15T07:26:54;73.47;;;19.35;;
74042;SDS011;62384;53.600;10.040;2023-02-15T07:29:19;84.90;;;19.30;;
74042;SDS011;62384;53.600;10.040;2023-02-15T07:31:44;74.30;;;19.92;;
74042;SDS011;62384;53.600;10.040;2023-02-15T07:34:10;79.32;;;19.65;;
74042;SDS011;62384;53.600;10.040;2023-02-15T07:36:35;57.08;;;18.45;;
74042;SDS011;62384;53.600;10.040;2023-02-15T07:39:01;55.15;;;17.67;;
74042;SDS011;62384;53.600;10.040;2023-02-15T07:41:26;68.32;;;19.40;;
74042;SDS011;62384;53.600;10.040;2023-02-15T07:43:51;52.75;;;17.35;;
74042;SDS011;62384;53.600;10.040;2023-02-15T07:46:17;53.72;;;17.10;;
74042;SDS011;62384;53.600;10.040;2023-02-15T07:48:43;53.08;;;17.83;;
74042;SDS011;62384;53.600;10.040;2023-02-15T07:51:09;52.60;;;16.98;;
74042;SDS011;62384;53.600;10.040;2023-02-15T07:53:36;57.40;;;18.23;;
74042;SDS011;62384;53.600;10.040;2023-02-15T07:56:07;57.88;;;19.50;;
74042;SDS011;62384;53.600;10.040;2023-02-15T07:58:34;68.00;;;19.40;;
74042;SDS011;62384;53.600;10.040;2023-02-15T08:01:20;54.53;;;18.52;;
74042;SDS011;62384;53.600;10.040;2023-02-15T08:03:47;68.25;;;20.13;;
74042;SDS011;62384;53.600;10.040;2023-02-15T08:06:13;50.10;;;17.15;;
74042;SDS011;62384;53.600;10.040;2023-02-15T08:08:38;56.63;;;19.90;;
74042;SDS011;62384;53.600;10.040;2023-02-15T08:11:21;55.22;;;18.95;;
74042;SDS011;62384;53.600;10.040;2023-02-15T08:13:51;60.00;;;18.80;;
74042;SDS011;62384;53.600;10.040;2023-02-15T08:16:31;50.75;;;18.60;;
74042;SDS011;62384;53.600;10.040;2023-02-15T08:19:02;55.00;;;17.90;;
74042;SDS011;62384;53.600;10.040;2023-02-15T08:21:29;54.25;;;18.02;;
74042;SDS011;62384;53.600;10.040;2023-02-15T08:23:55;59.25;;;18.05;;
74042;SDS011;62384;53.600;10.040;2023-02-15T08:26:21;74.35;;;19.33;;
74042;SDS011;62384;53.600;10.040;2023-02-15T08:28:47;63.40;;;18.95;;
74042;SDS011;62384;53.600;10.040;2023-02-15T08:31:14;66.82;;;18.45;;
74042;SDS011;62384;53.600;10.040;2023-02-15T08:33:40;69.40;;;18.85;;
74042;SDS011;62384;53.600;10.040;2023-02-15T08:36:10;53.22;;;18.38;;
74042;SDS011;62384;53.600;10.040;2023-02-15T08:38:37;61.20;;;19.45;;
74042;SDS011;62384;53.600;10.040;2023-02-15T08:41:13;60.28;;;19.38;;
74042;SDS011;62384;53.600;10.040;2023-02-15T08:43:39;55.35;;;18.55;;
74042;SDS011;62384;53.600;10.040;2023-02-15T08:46:05;60.03;;;18.73;;
74042;SDS011;62384;53.600;10.040;2023-02-15T08:48:31;64.63;;;17.92;;
74042;SDS011;62384;53.600;10.040;2023-02-15T08:50:56;65.68;;;18.92;;
74042;SDS011;62384;53.600;10.040;2023-02-15T08:53:21;52.95;;;19.05;;
74042;SDS011;62384;53.600;10.040;2023-02-15T08:55:47;69.18;;;17.85;;
74042;SDS011;62384;53.600;10.040;2023-02-15T08:58:20;51.60;;;19.08;;
74042;SDS011;62384;53.600;10.040;2023-02-15T09:00:45;55.92;;;17.90;;
74042;SDS011;62384;53.600;10.040;2023-02-15T09:03:10;59.75;;;18.13;;
74042;SDS011;62384;53.600;10.040;2023-02-15T09:05:36;56.05;;;17.25;;
74042;SDS011;62384;53.600;10.040;2023-02-15T09:08:01;84.35;;;20.10;;
74042;SDS011;62384;53.600;10.040;2023-02-15T09:10:27;55.00;;;19.00;;
74042;SDS011;62384;53.600;10.040;2023-02-15T09:12:52;63.25;;;20.38;;
74042;SDS011;62384;53.600;10.040;2023-02-15T09:15:17;54.65;;;18.40;;
74042;SDS011;62384;53.600;10.040;2023-02-15T09:17:43;53.33;;;17.85;;
74042;SDS011;62384;53.600;10.040;2023-02-15T09:20:08;56.65;;;18.52;;
74042;SDS011;62384;53.600;10.040;2023-02-15T09:22:33;51.03;;;18.23;;
74042;SDS011;62384;53.600;10.040;2023-02-15T09:24:59;53.22;;;18.83;;
74042;SDS011;62384;53.600;10.040;2023-02-15T09:27:24;46.70;;;16.88;;
74042;SDS011;62384;53.600;10.040;2023-02-15T09:29:49;58.75;;;18.25;;
74042;SDS011;62384;53.600;10.040;2023-02-15T09:32:15;55.15;;;17.35;;
74042;SDS011;62384;53.600;10.040;2023-02-15T09:34:40;86.20;;;20.17;;
74042;SDS011;62384;53.600;10.040;2023-02-15T09:37:05;55.00;;;18.33;;
74042;SDS011;62384;53.600;10.040;2023-02-15T09:39:31;52.03;;;17.00;;
74042;SDS011;62384;53.600;10.040;2023-02-15T09:44:55;49.67;;;17.77;;
74042;SDS011;62384;53.600;10.040;2023-02-15T09:51:09;53.63;;;17.85;;
74042;SDS011;62384;53.600;10.040;2023-02-15T09:56:50;47.67;;;17.60;;
74042;SDS011;62384;53.600;10.040;2023-02-15T09:59:43;46.80;;;16.92;;
74042;SDS011;62384;53.600;10.040;2023-02-15T10:02:42;55.17;;;18.55;;
74042;SDS011;62384;53.600;10.040;2023-02-15T10:05:42;50.00;;;17.50;;
74042;SDS011;62384;53.600;10.040;2023-02-15T10:14:27;53.53;;;19.08;;
74042;SDS011;62384;53.600;10.040;2023-02-15T10:17:11;47.90;;;18.08;;
74042;SDS011;62384;53.600;10.040;2023-02-15T10:31:24;53.20;;;20.48;;
74042;SDS011;62384;53.600;10.040;2023-02-15T10:36:33;51.60;;;19.63;;
74042;SDS011;62384;53.600;10.040;2023-02-15T10:39:25;59.58;;;19.58;;
74042;SDS011;62384;53.600;10.040;2023-02-15T10:41:54;51.83;;;20.55;;
74042;SDS011;62384;53.600;10.040;2023-02-15T10:44:43;50.80;;;19.15;;
74042;SDS011;62384;53.600;10.040;2023-02-15T10:47:18;59.65;;;21.10;;
74042;SDS011;62384;53.600;10.040;2023-02-15T10:50:06;56.08;;;20.83;;
74042;SDS011;62384;53.600;10.040;2023-02-15T10:52:48;50.80;;;19.02;;
74042;SDS011;62384;53.600;10.040;2023-02-15T10:55:28;49.90;;;18.33;;
74042;SDS011;62384;53.600;10.040;2023-02-15T11:01:15;57.10;;;20.45;;
74042;SDS011;62384;53.600;10.040;2023-02-15T11:06:43;47.15;;;17.90;;
74042;SDS011;62384;53.600;10.040;2023-02-15T11:11:40;49.75;;;18.67;;
74042;SDS011;62384;53.600;10.040;2023-02-15T11:14:15;45.92;;;17.70;;
74042;SDS011;62384;53.600;10.040;2023-02-15T11:16:48;46.28;;;17.45;;
74042;SDS011;62384;53.600;10.040;2023-02-15T11:19:25;46.60;;;18.95;;
74042;SDS011;62384;53.600;10.040;2023-02-15T11:22:01;46.15;;;18.88;;
74042;SDS011;62384;53.600;10.040;2023-02-15T11:24:30;52.47;;;20.13;;
74042;SDS011;62384;53.600;10.040;2023-02-15T11:27:33;55.30;;;19.92;;
74042;SDS011;62384;53.600;10.040;2023-02-15T11:30:05;53.35;;;21.60;;
74042;SDS011;62384;53.600;10.040;2023-02-15T11:32:41;47.17;;;19.05;;
74042;SDS011;62384;53.600;10.040;2023-02-15T11:37:36;53.47;;;19.15;;
74042;SDS011;62384;53.600;10.040;2023-02-15T11:40:14;46.83;;;19.30;;
74042;SDS011;62384;53.600;10.040;2023-02-15T11:42:47;47.65;;;19.70;;
74042;SDS011;62384;53.600;10.040;2023-02-15T11:45:36;47.67;;;18.58;;
74042;SDS011;62384;53.600;10.040;2023-02-15T11:48:00;49.15;;;18.77;;
74042;SDS011;62384;53.600;10.040;2023-02-15T11:50:34;42.80;;;18.58;;
74042;SDS011;62384;53.600;10.040;2023-02-15T11:53:00;39.20;;;16.90;;
74042;SDS011;62384;53.600;10.040;2023-02-15T11:55:29;47.95;;;19.30;;
74042;SDS011;62384;53.600;10.040;2023-02-15T12:00:45;42.90;;;18.80;;
74042;SDS011;62384;53.600;10.040;2023-02-15T12:03:14;40.38;;;16.65;;
74042;SDS011;62384;53.600;10.040;2023-02-15T12:05:44;44.17;;;18.67;;
74042;SDS011;62384;53.600;10.040;2023-02-15T12:08:19;39.88;;;17.95;;
74042;SDS011;62384;53.600;10.040;2023-02-15T12:10:53;40.80;;;19.00;;
74042;SDS011;62384;53.600;10.040;2023-02-15T12:13:53;37.92;;;18.17;;
74042;SDS011;62384;53.600;10.040;2023-02-15T12:16:21;44.55;;;17.65;;
74042;SDS011;62384;53.600;10.040;2023-02-15T12:18:46;41.95;;;18.23;;
74042;SDS011;62384;53.600;10.040;2023-02-15T12:21:14;44.65;;;19.67;;
74042;SDS011;62384;53.600;10.040;2023-02-15T12:23:50;44.80;;;18.65;;
74042;SDS011;62384;53.600;10.040;2023-02-15T12:26:24;51.85;;;20.15;;
74042;SDS011;62384;53.600;10.040;2023-02-15T12:28:51;42.67;;;18.55;;
74042;SDS011;62384;53.600;10.040;2023-02-15T12:31:23;40.47;;;17.02;;
74042;SDS011;62384;53.600;10.040;2023-02-15T12:33:52;42.47;;;17.73;;
74042;SDS011;62384;53.600;10.040;2023-02-15T12:41:37;36.65;;;16.80;;
74042;SDS011;62384;53.600;10.040;2023-02-15T12:44:15;42.25;;;18.52;;
74042;SDS011;62384;53.600;10.040;2023-02-15T12:46:58;39.33;;;17.20;;
74042;SDS011;62384;53.600;10.040;2023-02-15T12:49:26;39.28;;;17.90;;
74042;SDS011;62384;53.600;10.040;2023-02-15T12:52:02;39.05;;;17.85;;
74042;SDS011;62384;53.600;10.040;2023-02-15T12:54:34;31.92;;;15.85;;
74042;SDS011;62384;53.600;10.040;2023-02-15T13:02:48;37.35;;;16.58;;
74042;SDS011;62384;53.600;10.040;2023-02-15T13:07:49;33.35;;;15.88;;
74042;SDS011;62384;53.600;10.040;2023-02-15T13:10:24;38.58;;;17.80;;
74042;SDS011;62384;53.600;10.040;2023-02-15T13:12:53;39.47;;;18.10;;
74042;SDS011;62384;53.600;10.040;2023-02-15T13:15:27;37.35;;;17.02;;
74042;SDS011;62384;53.600;10.040;2023-02-15T13:17:54;34.17;;;17.67;;
74042;SDS011;62384;53.600;10.040;2023-02-15T13:20:21;39.80;;;19.63;;
74042;SDS011;62384;53.600;10.040;2023-02-15T13:22:48;34.85;;;17.85;;
74042;SDS011;62384;53.600;10.040;2023-02-15T13:27:43;38.95;;;17.85;;
74042;SDS011;62384;53.600;10.040;2023-02-15T13:30:18;37.55;;;18.13;;
74042;SDS011;62384;53.600;10.040;2023-02-15T13:32:48;36.78;;;17.83;;
74042;SDS011;62384;53.600;10.040;2023-02-15T13:35:16;36.70;;;17.98;;
74042;SDS011;62384;53.600;10.040;2023-02-15T13:40:44;34.20;;;17.30;;
74042;SDS011;62384;53.600;10.040;2023-02-15T13:48:41;38.75;;;17.77;;
74042;SDS011;62384;53.600;10.040;2023-02-15T13:56:59;37.47;;;17.65;;
74042;SDS011;62384;53.600;10.040;2023-02-15T14:02:33;41.28;;;17.48;;
74042;SDS011;62384;53.600;10.040;2023-02-15T14:16:47;34.17;;;17.58;;
74042;SDS011;62384;53.600;10.040;2023-02-15T14:22:20;35.20;;;17.17;;
74042;SDS011;62384;53.600;10.040;2023-02-15T14:25:05;35.83;;;15.88;;
74042;SDS011;62384;53.600;10.040;2023-02-15T14:27:56;37.45;;;16.83;;
74042;SDS011;62384;53.600;10.040;2023-02-15T14:30:30;34.40;;;16.70;;
74042;SDS011;62384;53.600;10.040;2023-02-15T14:33:16;35.45;;;16.48;;
74042;SDS011;62384;53.600;10.040;2023-02-15T14:35:56;34.20;;;16.75;;
74042;SDS011;62384;53.600;10.040;2023-02-15T14:49:37;34.00;;;15.95;;
74042;SDS011;62384;53.600;10.040;2023-02-15T14:59:26;35.83;;;17.40;;
74042;SDS011;62384;53.600;10.040;2023-02-15T15:04:31;37.30;;;15.38;;
74042;SDS011;62384;53.600;10.040;2023-02-15T15:07:00;32.50;;;14.95;;
74042;SDS011;62384;53.600;10.040;2023-02-15T15:09:33;34.72;;;16.02;;
74042;SDS011;62384;53.600;10.040;2023-02-15T15:14:46;38.15;;;15.35;;
74042;SDS011;62384;53.600;10.040;2023-02-15T15:20:10;35.70;;;16.13;;
74042;SDS011;62384;53.600;10.040;2023-02-15T15:22:38;32.30;;;15.73;;
74042;SDS011;62384;53.600;10.040;2023-02-15T15:26:20;32.53;;;16.00;;
74042;SDS011;62384;53.600;10.040;2023-02-15T15:28:05;31.95;;;15.30;;
74042;SDS011;62384;53.600;10.040;2023-02-15T15:32:58;29.13;;;13.85;;
74042;SDS011;62384;53.600;10.040;2023-02-15T15:41:03;34.33;;;14.63;;
74042;SDS011;62384;53.600;10.040;2023-02-15T15:43:52;32.72;;;15.50;;
74042;SDS011;62384;53.600;10.040;2023-02-15T15:49:35;34.78;;;15.50;;
74042;SDS011;62384;53.600;10.040;2023-02-15T15:52:07;34.10;;;15.80;;
74042;SDS011;62384;53.600;10.040;2023-02-15T15:54:39;34.85;;;14.65;;
74042;SDS011;62384;53.600;10.040;2023-02-15T15:57:05;39.10;;;15.85;;
74042;SDS011;62384;53.600;10.040;2023-02-15T15:59:43;32.72;;;15.45;;
74042;SDS011;62384;53.600;10.040;2023-02-15T16:02:11;31.52;;;15.88;;
74042;SDS011;62384;53.600;10.040;2023-02-15T16:04:40;37.13;;;15.52;;
74042;SDS011;62384;53.600;10.040;2023-02-15T16:12:33;31.10;;;14.75;;
74042;SDS011;62384;53.600;10.040;2023-02-15T16:15:16;35.50;;;15.45;;
74042;SDS011;62384;53.600;10.040;2023-02-15T16:17:44;35.75;;;15.75;;
74042;SDS011;62384;53.600;10.040;2023-02-15T16:20:17;33.08;;;14.88;;
74042;SDS011;62384;53.600;10.040;2023-02-15T16:22:46;39.90;;;16.20;;
74042;SDS011;62384;53.600;10.040;2023-02-15T16:25:26;33.70;;;15.32;;
74042;SDS011;62384;53.600;10.040;2023-02-15T16:28:13;38.15;;;16.17;;
74042;SDS011;62384;53.600;10.040;2023-02-15T16:30:39;35.83;;;15.93;;
74042;SDS011;62384;53.600;10.040;2023-02-15T16:33:08;38.22;;;16.10;;
74042;SDS011;62384;53.600;10.040;2023-02-15T16:35:34;37.85;;;15.07;;
74042;SDS011;62384;53.600;10.040;2023-02-15T16:38:02;36.03;;;15.98;;
74042;SDS011;62384;53.600;10.040;2023-02-15T16:40:47;36.72;;;15.63;;
74042;SDS011;62384;53.600;10.040;2023-02-15T16:43:18;34.80;;;15.93;;
74042;SDS011;62384;53.600;10.040;2023-02-15T16:45:50;38.20;;;16.15;;
74042;SDS011;62384;53.600;10.040;2023-02-15T16:48:17;39.15;;;16.50;;
74042;SDS011;62384;53.600;10.040;2023-02-15T16:50:49;36.38;;;15.52;;
74042;SDS011;62384;53.600;10.040;2023-02-15T16:53:19;38.42;;;15.15;;
74042;SDS011;62384;53.600;10.040;2023-02-15T16:55:48;36.33;;;15.45;;
74042;SDS011;62384;53.600;10.040;2023-02-15T16:58:16;36.83;;;15.15;;
74042;SDS011;62384;53.600;10.040;2023-02-15T17:00:42;37.90;;;16.20;;
74042;SDS011;62384;53.600;10.040;2023-02-15T17:05:40;36.28;;;16.38;;
74042;SDS011;62384;53.600;10.040;2023-02-15T17:08:16;34.78;;;15.25;;